Time;durP1;ratioP1;P1;durP2;ratioP2;P2;SDS_P1;SDS_P2;PMS_P1;PMS_P2;Temp;Humidity;BMP_temperature;BMP_pressure;BME280_temperature;BME280_humidity;BME280_pressure;Samples;Min_cycle;Max_cycle;Signal;HPM_P1;HPM_P2
2023/01/05 00:00:49;;;;;;;1.03;0.70;;;9.30;99.90;;;;;;5037579;28;20445;-38
2023/01/05 00:03:15;;;;;;;1.50;0.70;;;9.40;99.90;;;;;;5038222;28;20725;-38
2023/01/05 00:05:40;;;;;;;1.10;0.60;;;9.40;99.90;;;;;;5037081;28;20198;-38
2023/01/05 00:08:06;;;;;;;0.90;0.50;;;9.40;99.90;;;;;;5037486;28;20289;-38
2023/01/05 00:24:24;;;;;;;0.80;0.50;;;9.50;99.90;;;;;;5036287;28;20432;-37
2023/01/05 00:26:49;;;;;;;1.43;0.53;;;9.50;99.90;;;;;;5036716;28;20861;-38
2023/01/05 00:29:15;;;;;;;0.93;0.40;;;9.50;99.90;;;;;;5037035;28;20186;-37
2023/01/05 00:31:40;;;;;;;0.80;0.40;;;9.50;99.90;;;;;;5036890;28;20241;-37
2023/01/05 00:34:06;;;;;;;1.50;0.70;;;9.50;99.90;;;;;;5037552;28;20179;-39
2023/01/05 00:36:31;;;;;;;1.10;0.50;;;9.50;99.90;;;;;;5037854;28;20225;-40
2023/01/05 00:38:57;;;;;;;0.90;0.40;;;9.50;99.90;;;;;;5038223;28;20450;-39
2023/01/05 00:41:23;;;;;;;1.10;0.50;;;9.50;99.90;;;;;;5038572;28;20177;-38
2023/01/05 00:43:48;;;;;;;0.73;0.40;;;9.40;99.90;;;;;;5037353;28;20639;-37
2023/01/05 00:46:14;;;;;;;2.30;0.50;;;9.40;99.90;;;;;;5037715;28;20198;-39
2023/01/05 00:48:39;;;;;;;1.00;0.53;;;9.40;99.90;;;;;;5036733;28;20463;-37
2023/01/05 00:51:05;;;;;;;0.70;0.40;;;9.50;99.90;;;;;;5035969;28;20178;-38
2023/01/05 00:53:30;;;;;;;1.27;0.70;;;9.50;99.90;;;;;;5035153;28;20183;-40
2023/01/05 00:55:57;;;;;;;1.03;0.67;;;9.50;99.90;;;;;;5035837;28;20175;-39
2023/01/05 00:58:23;;;;;;;0.90;0.60;;;9.50;99.90;;;;;;5035883;28;20190;-38
2023/01/05 01:00:48;;;;;;;1.20;0.70;;;9.50;99.90;;;;;;5035540;28;20731;-39
2023/01/05 01:03:14;;;;;;;0.80;0.50;;;9.50;99.90;;;;;;5036730;28;20190;-39
2023/01/05 01:05:39;;;;;;;0.70;0.40;;;9.50;99.90;;;;;;5037491;28;20264;-39
2023/01/05 01:08:05;;;;;;;1.10;0.50;;;9.50;99.90;;;;;;5037175;28;20232;-38
2023/01/05 01:10:31;;;;;;;0.80;0.40;;;9.50;99.90;;;;;;5037428;28;20636;-38
2023/01/05 01:12:56;;;;;;;1.27;0.60;;;9.50;99.90;;;;;;5037256;28;20474;-39
2023/01/05 01:15:23;;;;;;;0.70;0.40;;;9.40;99.90;;;;;;5036131;28;20288;-38
2023/01/05 01:17:49;;;;;;;0.70;0.40;;;9.50;99.90;;;;;;5036997;28;20193;-38
2023/01/05 01:20:14;;;;;;;1.30;0.70;;;9.50;99.90;;;;;;5036477;28;20429;-38
2023/01/05 01:22:40;;;;;;;1.30;0.47;;;9.50;99.90;;;;;;5036206;28;20454;-38
2023/01/05 01:25:06;;;;;;;1.00;0.30;;;9.50;99.90;;;;;;5037151;28;20467;-38
2023/01/05 01:27:32;;;;;;;0.80;0.43;;;9.50;99.90;;;;;;5039661;28;20481;-38
2023/01/05 01:29:57;;;;;;;0.70;0.30;;;9.60;99.90;;;;;;5040089;28;20190;-39
2023/01/05 01:32:23;;;;;;;2.77;0.40;;;9.60;99.90;;;;;;5040621;28;20512;-39
2023/01/05 01:34:49;;;;;;;0.73;0.30;;;9.60;99.90;;;;;;5041117;28;20293;-39
2023/01/05 01:37:15;;;;;;;1.73;0.40;;;9.60;99.90;;;;;;5040638;28;20182;-37
2023/01/05 01:39:41;;;;;;;1.30;0.40;;;9.60;99.90;;;;;;5039366;28;20425;-38
2023/01/05 01:42:12;;;;;;;0.80;0.50;;;9.50;99.90;;;;;;5039555;28;20421;-37
2023/01/05 01:44:56;;;;;;;1.03;0.70;;;9.60;99.90;;;;;;5039601;28;20230;-38
2023/01/05 01:47:38;;;;;;;0.73;0.30;;;9.60;99.90;;;;;;5040088;28;20516;-38
2023/01/05 01:50:17;;;;;;;0.80;0.50;;;9.50;99.90;;;;;;5040419;28;20413;-37
2023/01/05 01:52:44;;;;;;;0.70;0.30;;;9.50;99.90;;;;;;5040730;28;20775;-40
2023/01/05 01:55:10;;;;;;;2.23;0.40;;;9.50;99.90;;;;;;5040280;28;20891;-38
2023/01/05 01:57:37;;;;;;;0.80;0.30;;;9.50;99.90;;;;;;5039541;28;20429;-38
2023/01/05 02:00:05;;;;;;;0.77;0.30;;;9.50;99.90;;;;;;5038255;28;20425;-38
2023/01/05 02:02:31;;;;;;;0.70;0.33;;;9.50;99.90;;;;;;5039066;28;20433;-38
2023/01/05 02:05:02;;;;;;;0.77;0.40;;;9.50;99.90;;;;;;5039218;28;20820;-38
2023/01/05 02:07:32;;;;;;;0.97;0.40;;;9.40;99.90;;;;;;5038261;28;20214;-39
2023/01/05 02:09:59;;;;;;;0.77;0.27;;;9.50;99.90;;;;;;5038423;28;20468;-39
2023/01/05 02:13:02;;;;;;;0.70;0.30;;;9.50;99.90;;;;;;5037851;28;20793;-38
2023/01/05 02:15:48;;;;;;;1.57;0.30;;;9.50;99.90;;;;;;5037376;28;20409;-39
2023/01/05 02:18:43;;;;;;;0.70;0.30;;;9.50;99.90;;;;;;5037327;28;20544;-38
2023/01/05 02:21:41;;;;;;;1.07;0.37;;;9.50;99.90;;;;;;5037370;28;20412;-38
2023/01/05 02:24:36;;;;;;;0.90;0.50;;;9.50;1.00;;;;;;5038511;28;20793;-39
2023/01/05 02:27:29;;;;;;;0.80;0.40;;;9.50;1.00;;;;;;5037528;28;20734;-37
2023/01/05 02:30:06;;;;;;;0.60;0.30;;;9.50;99.90;;;;;;5037664;28;20413;-38
2023/01/05 02:32:46;;;;;;;1.00;0.30;;;9.50;1.00;;;;;;5038910;28;20436;-38
2023/01/05 02:35:33;;;;;;;0.80;0.40;;;9.50;1.00;;;;;;5037753;28;20480;-38
2023/01/05 02:38:11;;;;;;;0.70;0.30;;;9.50;1.00;;;;;;5039373;28;20439;-38
2023/01/05 02:40:44;;;;;;;1.33;0.43;;;9.50;1.00;;;;;;5039629;28;20906;-39
2023/01/05 02:43:13;;;;;;;0.67;0.30;;;9.60;99.90;;;;;;5038161;28;20457;-38
2023/01/05 02:49:02;;;;;;;1.00;0.40;;;9.50;1.00;;;;;;5038493;28;20413;-38
2023/01/05 02:51:39;;;;;;;0.70;0.30;;;9.60;1.00;;;;;;5038943;28;20405;-38
2023/01/05 02:54:07;;;;;;;1.00;0.40;;;9.60;99.90;;;;;;5037618;28;20404;-39
2023/01/05 02:56:39;;;;;;;0.70;0.40;;;9.60;1.00;;;;;;5038273;28;20416;-39
2023/01/05 02:59:13;;;;;;;0.70;0.30;;;9.60;99.90;;;;;;5037470;28;20443;-38
2023/01/05 03:01:43;;;;;;;0.70;0.40;;;9.60;99.90;;;;;;5038653;28;20689;-38
2023/01/05 03:04:15;;;;;;;0.70;0.30;;;9.70;99.90;;;;;;5040022;28;20801;-39
2023/01/05 03:06:49;;;;;;;0.87;0.40;;;9.70;99.90;;;;;;5040254;28;20503;-38
2023/01/05 03:09:18;;;;;;;1.10;0.40;;;9.70;99.90;;;;;;5039395;28;20943;-38
2023/01/05 03:15:24;;;;;;;0.67;0.30;;;9.90;99.90;;;;;;5038619;28;20401;-38
2023/01/05 03:17:53;;;;;;;0.67;0.30;;;9.90;99.90;;;;;;5038658;28;20425;-39
2023/01/05 03:20:22;;;;;;;0.80;0.30;;;9.90;99.90;;;;;;5037356;28;20429;-38
2023/01/05 03:37:08;;;;;;;0.60;0.20;;;10.10;99.90;;;;;;5035733;28;20848;-37
2023/01/05 03:39:37;;;;;;;0.67;0.30;;;10.20;99.90;;;;;;5036862;28;20458;-38
2023/01/05 03:42:02;;;;;;;0.80;0.30;;;10.20;99.90;;;;;;5036775;28;20436;-39
2023/01/05 03:44:28;;;;;;;2.73;0.40;;;10.20;99.90;;;;;;5035576;28;20457;-40
2023/01/05 03:46:54;;;;;;;0.70;0.30;;;10.20;99.90;;;;;;5037598;28;20218;-41
2023/01/05 03:49:19;;;;;;;0.70;0.30;;;10.20;99.90;;;;;;5036161;28;20459;-39
2023/01/05 03:51:45;;;;;;;0.90;0.30;;;10.20;99.90;;;;;;5037378;28;20240;-38
2023/01/05 03:54:11;;;;;;;0.80;0.30;;;10.20;99.90;;;;;;5038218;28;20182;-38
2023/01/05 03:56:37;;;;;;;0.70;0.27;;;10.20;99.90;;;;;;5037932;28;20185;-38
2023/01/05 03:59:02;;;;;;;1.33;0.37;;;10.30;99.90;;;;;;5037750;28;20179;-39
2023/01/05 04:01:28;;;;;;;0.70;0.30;;;10.30;99.90;;;;;;5038018;28;20425;-38
2023/01/05 04:03:55;;;;;;;0.80;0.30;;;10.30;99.90;;;;;;5037777;28;20217;-38
2023/01/05 04:06:21;;;;;;;0.80;0.30;;;10.30;99.90;;;;;;5037817;28;20190;-37
2023/01/05 04:08:47;;;;;;;0.80;0.30;;;10.30;99.90;;;;;;5037174;28;20413;-38
2023/01/05 04:11:21;;;;;;;0.70;0.30;;;10.30;99.90;;;;;;5036260;28;20251;-39
2023/01/05 04:13:47;;;;;;;0.67;0.20;;;10.30;99.90;;;;;;5035700;28;20185;-38
2023/01/05 04:16:13;;;;;;;1.00;0.30;;;10.30;99.90;;;;;;5035963;28;20429;-38
2023/01/05 04:18:39;;;;;;;0.83;0.30;;;10.30;99.90;;;;;;5037539;28;20447;-39
2023/01/05 04:21:05;;;;;;;0.80;0.30;;;10.40;99.90;;;;;;5037800;28;20432;-37
2023/01/05 04:23:31;;;;;;;0.70;0.20;;;10.40;99.90;;;;;;5037075;28;20269;-39
2023/01/05 04:25:57;;;;;;;0.67;0.30;;;10.40;99.90;;;;;;5036250;28;20464;-38
2023/01/05 04:28:23;;;;;;;0.80;0.30;;;10.40;99.90;;;;;;5035559;28;20499;-38
2023/01/05 04:30:50;;;;;;;0.60;0.20;;;10.40;99.90;;;;;;5042560;28;20558;-38
2023/01/05 04:33:18;;;;;;;0.70;0.30;;;10.40;99.90;;;;;;5044703;28;20426;-40
2023/01/05 04:35:44;;;;;;;0.70;0.30;;;10.40;99.90;;;;;;5039267;28;20425;-40
2023/01/05 04:38:11;;;;;;;0.77;0.30;;;10.40;99.90;;;;;;5039558;28;20872;-38
2023/01/05 04:40:37;;;;;;;0.97;0.30;;;10.40;99.90;;;;;;5040588;28;20437;-38
2023/01/05 04:43:03;;;;;;;0.70;0.30;;;10.40;99.90;;;;;;5037604;28;20417;-39
2023/01/05 04:45:28;;;;;;;0.70;0.20;;;10.30;99.90;;;;;;5036940;28;20781;-39
2023/01/05 04:47:54;;;;;;;1.27;0.20;;;10.30;99.90;;;;;;5035262;28;20468;-36
2023/01/05 04:50:20;;;;;;;0.70;0.30;;;10.30;99.90;;;;;;5037708;28;20174;-37
2023/01/05 04:52:45;;;;;;;0.70;0.23;;;10.30;99.90;;;;;;5036846;28;20189;-37
2023/01/05 04:55:11;;;;;;;0.77;0.30;;;10.30;99.90;;;;;;5034694;28;20417;-38
2023/01/05 04:57:37;;;;;;;1.57;1.17;;;10.30;99.90;;;;;;5037127;28;20179;-37
2023/01/05 05:00:03;;;;;;;0.90;0.30;;;10.30;99.90;;;;;;5037116;28;20600;-38
2023/01/05 05:02:29;;;;;;;0.70;0.40;;;10.30;99.90;;;;;;5039599;28;20229;-38
2023/01/05 05:04:55;;;;;;;0.60;0.20;;;10.30;99.90;;;;;;5041761;28;20897;-38
2023/01/05 05:08:04;;;;;;;0.80;0.40;;;10.30;99.90;;;;;;5041421;28;20309;-38
2023/01/05 05:10:30;;;;;;;1.10;0.40;;;10.30;99.90;;;;;;5040569;28;20182;-38
2023/01/05 05:12:55;;;;;;;0.60;0.20;;;10.30;99.90;;;;;;5039929;28;20922;-37
2023/01/05 05:15:21;;;;;;;0.83;0.43;;;10.30;99.90;;;;;;5040114;28;20198;-37
2023/01/05 05:17:47;;;;;;;0.70;0.33;;;10.30;99.90;;;;;;5041013;28;20208;-37
2023/01/05 05:20:13;;;;;;;0.70;0.30;;;10.30;99.90;;;;;;5040974;28;20182;-36
2023/01/05 05:22:38;;;;;;;0.60;0.20;;;10.30;99.90;;;;;;5040318;28;20405;-37
2023/01/05 05:25:05;;;;;;;0.77;0.20;;;10.30;99.90;;;;;;5040140;28;20443;-37
2023/01/05 05:27:30;;;;;;;0.80;0.43;;;10.30;99.90;;;;;;5040516;28;20202;-38
2023/01/05 05:29:56;;;;;;;0.93;0.30;;;10.20;99.90;;;;;;5039754;28;20815;-37
2023/01/05 05:32:22;;;;;;;0.70;0.30;;;10.20;99.90;;;;;;5040596;28;20260;-36
2023/01/05 05:34:47;;;;;;;0.90;0.30;;;10.20;99.90;;;;;;5040427;28;20222;-38
2023/01/05 05:37:13;;;;;;;0.70;0.20;;;10.20;99.90;;;;;;5039220;28;20194;-38
2023/01/05 05:39:39;;;;;;;0.80;0.30;;;10.20;99.90;;;;;;5039906;28;20186;-37
2023/01/05 05:42:04;;;;;;;1.43;0.30;;;10.20;99.90;;;;;;5039558;28;20183;-37
2023/01/05 05:44:30;;;;;;;1.10;0.30;;;10.20;99.90;;;;;;5038491;28;20308;-39
2023/01/05 05:46:56;;;;;;;0.80;0.30;;;10.20;99.90;;;;;;5038696;28;20210;-37
2023/01/05 05:49:21;;;;;;;0.70;0.30;;;10.10;1.00;;;;;;5037506;28;20186;-38
2023/01/05 05:51:47;;;;;;;0.70;0.30;;;10.10;1.00;;;;;;5038326;28;20414;-38
2023/01/05 05:54:13;;;;;;;1.07;0.40;;;10.10;1.00;;;;;;5037934;28;20372;-37
2023/01/05 05:56:38;;;;;;;0.87;0.37;;;10.10;1.00;;;;;;5038435;28;20179;-39
2023/01/05 05:59:04;;;;;;;0.67;0.30;;;10.00;1.00;;;;;;5038227;28;20524;-38
2023/01/05 06:01:30;;;;;;;1.63;0.40;;;10.10;1.00;;;;;;5039008;28;20178;-37
2023/01/05 06:03:55;;;;;;;3.07;0.33;;;10.10;1.00;;;;;;5038262;28;20197;-37
2023/01/05 06:06:21;;;;;;;0.90;0.40;;;10.00;1.00;;;;;;5054223;28;20301;-39
2023/01/05 06:08:47;;;;;;;0.67;0.30;;;10.10;1.00;;;;;;5039782;28;20198;-38
2023/01/05 06:11:13;;;;;;;1.10;0.40;;;10.10;1.00;;;;;;5037221;28;20171;-37
2023/01/05 06:13:38;;;;;;;4.20;0.30;;;10.00;1.00;;;;;;5037512;28;20189;-38
2023/01/05 06:16:04;;;;;;;0.93;0.40;;;10.00;1.00;;;;;;5038081;28;20209;-37
2023/01/05 06:18:30;;;;;;;1.03;0.50;;;10.00;1.00;;;;;;5038856;28;20433;-38
2023/01/05 06:20:56;;;;;;;1.60;0.53;;;10.10;1.00;;;;;;5037486;28;20744;-37
2023/01/05 06:23:21;;;;;;;2.83;1.20;;;10.00;1.00;;;;;;5038035;28;20229;-37
2023/01/05 06:25:47;;;;;;;0.90;0.50;;;10.10;1.00;;;;;;5037369;28;20175;-38
2023/01/05 06:28:13;;;;;;;2.40;1.13;;;10.00;1.00;;;;;;5037745;28;20432;-37
2023/01/05 06:30:38;;;;;;;1.00;0.40;;;10.00;1.00;;;;;;5037351;28;20270;-38
2023/01/05 06:33:04;;;;;;;0.80;0.43;;;10.10;1.00;;;;;;5037814;28;20265;-37
2023/01/05 06:35:29;;;;;;;18.30;10.37;;;10.00;1.00;;;;;;5038070;28;20197;-37
2023/01/05 06:37:55;;;;;;;1.97;1.07;;;10.10;99.90;;;;;;5038979;28;20190;-38
2023/01/05 06:40:21;;;;;;;11.43;6.63;;;10.10;99.90;;;;;;5038313;28;20178;-37
2023/01/05 06:42:46;;;;;;;10.13;5.87;;;10.10;99.90;;;;;;5034421;28;20458;-37
2023/01/05 06:45:14;;;;;;;7.60;4.30;;;10.10;99.90;;;;;;5035928;28;20308;-37
2023/01/05 06:47:39;;;;;;;2.80;1.40;;;10.10;99.90;;;;;;5035914;28;20386;-37
2023/01/05 06:50:06;;;;;;;2.20;1.20;;;10.10;99.90;;;;;;5035386;28;20686;-38
2023/01/05 06:52:35;;;;;;;1.80;0.80;;;10.10;99.90;;;;;;5034864;28;20483;-38
2023/01/05 06:55:02;;;;;;;5.40;2.73;;;10.10;99.90;;;;;;5034399;28;20848;-37
2023/01/05 06:57:28;;;;;;;3.70;2.37;;;10.00;99.90;;;;;;5037316;28;20425;-36
2023/01/05 06:59:54;;;;;;;2.30;1.17;;;10.00;99.90;;;;;;5037767;28;20413;-37
2023/01/05 07:02:19;;;;;;;3.70;2.30;;;9.90;99.90;;;;;;5038376;28;20597;-36
2023/01/05 07:04:45;;;;;;;1.00;0.40;;;9.90;99.90;;;;;;5037707;28;20170;-37
2023/01/05 07:07:14;;;;;;;1.37;0.50;;;9.90;99.90;;;;;;5037907;28;20315;-37
2023/01/05 07:09:40;;;;;;;6.30;3.73;;;9.90;1.00;;;;;;5037220;28;20179;-38
2023/01/05 07:12:06;;;;;;;3.53;0.67;;;9.90;99.90;;;;;;5036235;28;20499;-36
2023/01/05 07:14:32;;;;;;;1.97;0.60;;;9.80;99.90;;;;;;5037611;28;20421;-36
2023/01/05 07:16:57;;;;;;;1.47;0.50;;;9.70;99.90;;;;;;5036089;28;20429;-37
2023/01/05 07:19:23;;;;;;;2.60;1.13;;;9.80;99.90;;;;;;5036121;28;20287;-38
2023/01/05 07:21:49;;;;;;;1.70;0.90;;;9.80;99.90;;;;;;5035118;28;20411;-37
2023/01/05 07:24:14;;;;;;;1.50;0.70;;;9.70;99.90;;;;;;5034494;28;20189;-37
2023/01/05 07:26:40;;;;;;;2.10;1.00;;;9.80;99.90;;;;;;5035701;28;20210;-36
2023/01/05 07:29:06;;;;;;;2.47;0.80;;;9.70;99.90;;;;;;5051709;28;20229;-37
2023/01/05 07:31:33;;;;;;;1.43;0.90;;;9.70;99.90;;;;;;5036955;28;20585;-38
2023/01/05 07:33:59;;;;;;;2.23;0.60;;;9.70;99.90;;;;;;5036800;28;20269;-36
2023/01/05 07:36:25;;;;;;;1.50;0.93;;;9.80;99.90;;;;;;5037236;28;20508;-36
2023/01/05 07:38:51;;;;;;;1.13;0.80;;;9.80;99.90;;;;;;5036492;28;20179;-37
2023/01/05 07:41:17;;;;;;;1.43;0.67;;;9.80;99.90;;;;;;5036675;28;20565;-37
2023/01/05 07:43:43;;;;;;;1.60;0.80;;;9.80;83.30;;;;;;5035352;28;20469;-37
2023/01/05 07:46:11;;;;;;;2.20;0.87;;;9.80;6.10;;;;;;5036447;28;20182;-37
2023/01/05 07:48:38;;;;;;;2.80;2.27;;;9.90;1.00;;;;;;5035930;28;20533;-37
2023/01/05 07:51:04;;;;;;;1.63;0.73;;;9.90;1.00;;;;;;5049468;28;20433;-36
2023/01/05 07:53:31;;;;;;;3.50;1.10;;;9.90;1.00;;;;;;5035163;28;20445;-38
2023/01/05 07:55:58;;;;;;;2.80;1.10;;;9.90;1.00;;;;;;5036181;28;20757;-37
2023/01/05 07:58:24;;;;;;;2.47;1.40;;;10.00;1.00;;;;;;5036147;28;20428;-37
2023/01/05 08:00:50;;;;;;;1.60;0.90;;;10.00;1.00;;;;;;5036472;28;20429;-39
2023/01/05 08:03:16;;;;;;;4.60;1.13;;;10.00;1.00;;;;;;5037138;28;20186;-37
2023/01/05 08:05:41;;;;;;;4.00;1.03;;;10.00;99.90;;;;;;5036533;28;20328;-37
2023/01/05 08:08:07;;;;;;;6.00;1.60;;;10.00;99.90;;;;;;5050125;28;20210;-37
2023/01/05 08:10:33;;;;;;;3.53;1.07;;;10.10;99.90;;;;;;5035378;28;20618;-39
2023/01/05 08:15:50;;;;;;;2.60;1.37;;;10.10;99.90;;;;;;5035200;28;20236;-37
2023/01/05 08:18:16;;;;;;;4.23;1.30;;;10.10;99.90;;;;;;5035884;28;20421;-37
2023/01/05 08:20:42;;;;;;;4.30;1.53;;;10.10;95.00;;;;;;5035704;28;20590;-36
2023/01/05 08:23:07;;;;;;;2.80;1.17;;;10.10;6.80;;;;;;5034776;28;20190;-38
2023/01/05 08:25:33;;;;;;;3.30;1.27;;;10.10;1.00;;;;;;5034144;28;20609;-37
2023/01/05 08:27:59;;;;;;;2.83;1.43;;;10.20;1.00;;;;;;5034055;28;20203;-37
2023/01/05 08:30:25;;;;;;;5.67;1.83;;;10.10;1.00;;;;;;5035892;28;20174;-37
2023/01/05 08:32:50;;;;;;;5.43;1.70;;;10.10;1.00;;;;;;5037088;28;20684;-37
2023/01/05 08:35:16;;;;;;;4.40;1.57;;;10.10;1.00;;;;;;5037269;28;20448;-37
2023/01/05 08:37:44;;;;;;;7.10;1.53;;;10.10;1.00;;;;;;5041184;28;20272;-37
2023/01/05 08:40:10;;;;;;;4.13;1.30;;;10.10;1.00;;;;;;5040189;28;20182;-37
2023/01/05 08:42:36;;;;;;;5.23;1.80;;;10.10;1.00;;;;;;5040204;28;20440;-39
2023/01/05 08:45:03;;;;;;;5.17;1.50;;;10.10;1.00;;;;;;5039057;28;20578;-38
2023/01/05 08:47:29;;;;;;;5.00;2.20;;;10.10;1.00;;;;;;5039515;28;20272;-37
2023/01/05 08:49:55;;;;;;;4.77;1.37;;;10.10;1.00;;;;;;5039867;28;20658;-37
2023/01/05 08:52:22;;;;;;;5.83;1.77;;;10.10;1.00;;;;;;5039645;28;20189;-37
2023/01/05 08:54:48;;;;;;;5.33;1.80;;;10.10;1.00;;;;;;5040186;28;20169;-38
2023/01/05 08:57:13;;;;;;;8.83;2.10;;;10.10;99.90;;;;;;5040698;28;20436;-38
2023/01/05 08:59:39;;;;;;;4.90;1.33;;;10.10;30.90;;;;;;5038584;28;20503;-38
2023/01/05 09:02:06;;;;;;;6.67;1.83;;;10.20;13.50;;;;;;5038082;28;20185;-38
2023/01/05 09:04:31;;;;;;;11.13;3.07;;;10.10;66.50;;;;;;5038212;28;20420;-38
2023/01/05 09:06:57;;;;;;;6.20;1.63;;;10.10;48.50;;;;;;5036177;28;20460;-38
2023/01/05 09:09:23;;;;;;;7.03;1.70;;;10.10;54.50;;;;;;5034899;28;20509;-38
2023/01/05 09:11:49;;;;;;;7.00;2.40;;;10.10;81.40;;;;;;5035536;28;20630;-37
2023/01/05 09:14:15;;;;;;;4.70;1.70;;;10.10;79.50;;;;;;5035961;28;20421;-38
2023/01/05 09:16:40;;;;;;;9.73;3.60;;;10.20;1.00;;;;;;5037499;28;20502;-37
2023/01/05 09:19:06;;;;;;;6.90;2.13;;;10.10;1.00;;;;;;5036153;28;20457;-38
2023/01/05 09:21:32;;;;;;;4.53;1.90;;;10.10;1.00;;;;;;5037075;28;20400;-38
2023/01/05 09:23:58;;;;;;;7.20;1.87;;;10.10;1.00;;;;;;5037720;28;20194;-38
2023/01/05 09:26:23;;;;;;;7.90;2.13;;;10.10;1.00;;;;;;5042087;28;20431;-38
2023/01/05 09:28:49;;;;;;;6.70;1.63;;;10.10;1.00;;;;;;5057066;28;20225;-38
2023/01/05 09:31:20;;;;;;;8.63;2.23;;;10.10;1.00;;;;;;5059118;28;20193;-38
2023/01/05 09:33:46;;;;;;;7.50;2.67;;;10.10;99.90;;;;;;5060509;28;20185;-37
2023/01/05 09:36:13;;;;;;;4.23;2.23;;;10.10;99.90;;;;;;5057060;28;20427;-37
2023/01/05 09:38:39;;;;;;;8.20;3.37;;;10.20;99.90;;;;;;5055655;28;20424;-37
2023/01/05 09:41:22;;;;;;;7.73;2.47;;;10.20;99.90;;;;;;5056439;28;20420;-38
2023/01/05 09:43:51;;;;;;;9.83;2.37;;;10.20;1.00;;;;;;5056174;28;20468;-38
2023/01/05 09:46:21;;;;;;;7.90;2.33;;;10.30;1.00;;;;;;5057003;28;20436;-38
2023/01/05 09:48:51;;;;;;;8.13;2.63;;;10.30;99.90;;;;;;5038316;28;20466;-37
2023/01/05 09:51:16;;;;;;;9.90;2.33;;;10.30;99.90;;;;;;5056717;28;20431;-38
2023/01/05 09:53:42;;;;;;;9.40;2.40;;;10.30;99.90;;;;;;5056523;28;20700;-37
2023/01/05 09:56:26;;;;;;;6.60;2.50;;;10.30;99.90;;;;;;5057545;28;20184;-38
2023/01/05 09:58:52;;;;;;;11.23;2.13;;;10.30;99.90;;;;;;5058285;28;20182;-38
2023/01/05 10:01:18;;;;;;;11.53;1.90;;;10.50;1.00;;;;;;5057041;28;20527;-38
2023/01/05 10:03:57;;;;;;;5.33;1.97;;;10.60;99.90;;;;;;5057751;28;20691;-39
2023/01/05 10:06:27;;;;;;;6.07;2.33;;;10.70;1.00;;;;;;5057957;28;20591;-37
2023/01/05 10:08:54;;;;;;;9.87;2.20;;;10.70;1.00;;;;;;5055937;28;20948;-38
2023/01/05 10:14:37;;;;;;;5.83;1.90;;;10.80;99.90;;;;;;5055385;28;20788;-37
2023/01/05 10:17:03;;;;;;;5.90;1.97;;;10.80;99.90;;;;;;5055597;28;20497;-36
2023/01/05 10:19:29;;;;;;;6.30;2.03;;;10.80;99.90;;;;;;5055381;28;20843;-38
2023/01/05 10:22:00;;;;;;;11.43;2.40;;;10.90;99.90;;;;;;5055478;28;20539;-38
2023/01/05 10:25:01;;;;;;;4.60;1.80;;;10.90;99.90;;;;;;5054918;28;20178;-45
2023/01/05 10:27:39;;;;;;;6.50;2.10;;;11.00;1.00;;;;;;5054151;28;20570;-37
2023/01/05 10:30:25;;;;;;;14.00;2.97;;;11.10;1.00;;;;;;5056246;28;20511;-37
2023/01/05 10:32:59;;;;;;;10.20;2.00;;;11.10;1.00;;;;;;5054549;28;20493;-36
2023/01/05 10:36:03;;;;;;;7.80;2.20;;;11.10;1.00;;;;;;5055867;28;20424;-38
2023/01/05 10:39:10;;;;;;;6.87;2.80;;;11.10;99.90;;;;;;5054407;28;20697;-37
2023/01/05 10:42:01;;;;;;;6.70;1.70;;;11.20;99.90;;;;;;5050654;28;20435;-37
2023/01/05 10:44:37;;;;;;;7.23;1.80;;;11.30;89.90;;;;;;5056110;28;20821;-38
2023/01/05 10:47:10;;;;;;;5.17;1.97;;;11.30;67.80;;;;;;5054552;28;20506;-39
2023/01/05 10:49:36;;;;;;;8.97;3.53;;;11.30;32.80;;;;;;5055820;28;20428;-39
2023/01/05 10:52:02;;;;;;;7.30;2.60;;;11.40;1.00;;;;;;5056951;28;20424;-38
2023/01/05 10:54:42;;;;;;;3.80;1.77;;;11.50;1.00;;;;;;5056574;28;20684;-39
2023/01/05 10:57:32;;;;;;;8.93;1.97;;;11.30;1.00;;;;;;5056462;28;20842;-39
2023/01/05 11:00:10;;;;;;;8.53;3.57;;;11.30;1.00;;;;;;5054658;28;20404;-37
2023/01/05 11:02:44;;;;;;;9.07;2.00;;;11.30;1.00;;;;;;5054809;28;20439;-37
2023/01/05 11:05:10;;;;;;;6.20;2.57;;;11.20;1.00;;;;;;5054126;28;20443;-37
2023/01/05 11:07:51;;;;;;;10.33;2.60;;;11.30;1.00;;;;;;5055638;28;20530;-38
2023/01/05 11:10:26;;;;;;;13.27;3.57;;;11.40;1.00;;;;;;5056519;28;20283;-38
2023/01/05 11:13:01;;;;;;;8.63;1.90;;;11.30;1.00;;;;;;5056002;28;21004;-37
2023/01/05 11:15:30;;;;;;;7.73;2.33;;;11.20;1.00;;;;;;5054320;28;20434;-37
2023/01/05 11:17:56;;;;;;;11.43;2.47;;;11.10;1.00;;;;;;5056505;28;20412;-39
2023/01/05 11:20:22;;;;;;;7.07;2.60;;;11.20;1.00;;;;;;5055679;28;20439;-37
2023/01/05 11:22:50;;;;;;;8.63;2.57;;;11.10;1.00;;;;;;5053931;28;20420;-37
2023/01/05 11:25:26;;;;;;;11.00;2.43;;;11.10;1.00;;;;;;5054502;28;20429;-37
2023/01/05 11:28:15;;;;;;;9.23;2.30;;;11.10;99.90;;;;;;5056119;28;20474;-37
2023/01/05 11:31:02;;;;;;;7.83;2.40;;;11.10;1.00;;;;;;5053027;28;20691;-38
2023/01/05 11:33:30;;;;;;;9.93;3.67;;;11.00;1.00;;;;;;5055624;28;20439;-38
2023/01/05 11:35:56;;;;;;;10.70;2.80;;;11.00;1.00;;;;;;5055776;28;20424;-38
2023/01/05 11:38:27;;;;;;;7.33;3.00;;;11.00;99.90;;;;;;5055669;28;20462;-39
2023/01/05 11:40:55;;;;;;;8.63;2.53;;;10.90;99.90;;;;;;5055645;28;20439;-37
2023/01/05 11:43:22;;;;;;;7.53;2.17;;;10.90;99.90;;;;;;5054985;28;20423;-37
2023/01/05 11:45:50;;;;;;;8.57;2.70;;;10.90;99.90;;;;;;5055578;28;20440;-37
2023/01/05 11:48:22;;;;;;;5.80;1.73;;;10.90;99.90;;;;;;5055432;28;20471;-36
2023/01/05 11:50:50;;;;;;;8.67;2.63;;;10.90;99.90;;;;;;5055454;28;20502;-39
2023/01/05 11:53:34;;;;;;;9.07;3.00;;;10.90;99.90;;;;;;5054431;28;20425;-38
2023/01/05 11:56:18;;;;;;;6.80;2.67;;;10.90;99.90;;;;;;5055367;28;20522;-38
2023/01/05 11:58:45;;;;;;;7.80;2.33;;;10.90;99.90;;;;;;5053940;28;20420;-39
2023/01/05 12:01:32;;;;;;;7.07;2.17;;;11.00;99.90;;;;;;5053229;28;20428;-38
2023/01/05 12:04:10;;;;;;;6.97;2.17;;;11.00;99.90;;;;;;5054688;28;20482;-38
2023/01/05 12:06:54;;;;;;;9.63;2.67;;;11.00;99.90;;;;;;5054933;28;20530;-39
2023/01/05 12:09:37;;;;;;;5.77;2.27;;;11.10;99.90;;;;;;5054770;28;20425;-37
2023/01/05 12:12:51;;;;;;;9.50;4.13;;;11.10;99.90;;;;;;5055392;28;20435;-38
2023/01/05 12:15:35;;;;;;;7.77;2.90;;;11.30;99.90;;;;;;5016761;28;20456;-38
2023/01/05 12:18:00;;;;;;;7.83;2.30;;;11.30;15.00;;;;;;5054233;28;21030;-38
2023/01/05 12:20:54;;;;;;;7.90;2.20;;;11.20;1.00;;;;;;5054380;28;20586;-39
2023/01/05 12:23:35;;;;;;;7.90;2.30;;;11.20;6.50;;;;;;5054776;28;20208;-40
2023/01/05 12:26:22;;;;;;;13.60;3.17;;;11.00;86.10;;;;;;5052371;28;20477;-40
2023/01/05 12:28:48;;;;;;;9.97;2.80;;;10.90;99.90;;;;;;5053030;28;20551;-39
2023/01/05 12:31:39;;;;;;;8.40;2.13;;;10.90;99.90;;;;;;5053431;28;20496;-39
2023/01/05 12:34:26;;;;;;;11.03;2.53;;;10.80;99.90;;;;;;5051804;28;20557;-40
2023/01/05 12:37:01;;;;;;;9.00;2.70;;;10.80;1.00;;;;;;5054450;28;20517;-40
2023/01/05 12:39:38;;;;;;;7.50;2.10;;;10.80;1.00;;;;;;5053827;28;20431;-39
2023/01/05 12:42:22;;;;;;;8.33;2.47;;;10.70;1.00;;;;;;5054877;28;20439;-38
2023/01/05 12:44:50;;;;;;;7.50;2.70;;;10.70;1.00;;;;;;5055739;28;20540;-39
2023/01/05 12:47:32;;;;;;;10.60;2.50;;;10.70;1.00;;;;;;5053690;28;20474;-38
2023/01/05 12:50:17;;;;;;;9.80;2.23;;;10.70;1.00;;;;;;5052773;28;20469;-38
2023/01/05 12:52:46;;;;;;;10.03;2.93;;;10.60;5.00;;;;;;5054022;28;20658;-38
2023/01/05 12:55:18;;;;;;;7.50;2.50;;;10.70;1.00;;;;;;5052754;28;20419;-40
2023/01/05 12:58:10;;;;;;;7.30;2.60;;;10.70;1.00;;;;;;5054063;28;20527;-41
2023/01/05 13:00:41;;;;;;;9.63;2.90;;;10.80;1.00;;;;;;5050455;28;20790;-38
2023/01/05 13:03:25;;;;;;;9.30;3.13;;;10.80;28.00;;;;;;5054271;28;20496;-37
2023/01/05 13:06:13;;;;;;;9.93;2.77;;;10.80;1.00;;;;;;5054599;28;20436;-38
2023/01/05 13:08:41;;;;;;;13.03;2.53;;;10.80;1.00;;;;;;5054311;28;20460;-39
2023/01/05 13:11:19;;;;;;;12.33;3.23;;;10.80;1.00;;;;;;5055032;28;20416;-39
2023/01/05 13:13:48;;;;;;;9.70;2.97;;;10.70;1.00;;;;;;5054534;28;20439;-40
2023/01/05 13:16:17;;;;;;;8.23;2.83;;;10.70;99.90;;;;;;5052536;28;20439;-40
2023/01/05 13:18:51;;;;;;;10.33;2.37;;;10.70;99.90;;;;;;5033368;28;20421;-38
2023/01/05 13:21:18;;;;;;;8.00;2.93;;;10.70;99.90;;;;;;5032582;28;20552;-37
2023/01/05 13:24:04;;;;;;;14.77;3.07;;;10.80;99.90;;;;;;5036254;28;20500;-39
2023/01/05 13:26:30;;;;;;;9.17;2.87;;;10.70;99.90;;;;;;5036911;28;20516;-40
2023/01/05 13:28:56;;;;;;;5.70;2.50;;;10.80;99.90;;;;;;5038002;28;20555;-38
2023/01/05 13:32:10;;;;;;;9.03;2.80;;;10.70;99.90;;;;;;5036655;28;20542;-40
2023/01/05 13:34:39;;;;;;;8.60;2.73;;;10.70;1.00;;;;;;4988747;28;20187;-39
2023/01/05 13:37:10;;;;;;;13.50;3.30;;;10.70;99.90;;;;;;5036247;28;20425;-39
2023/01/05 13:40:03;;;;;;;9.80;3.13;;;10.70;1.00;;;;;;5037665;28;20833;-40
2023/01/05 13:42:40;;;;;;;9.90;2.50;;;10.70;1.00;;;;;;5039311;28;20424;-38
2023/01/05 13:45:12;;;;;;;11.10;2.50;;;10.70;1.00;;;;;;5037173;28;20553;-39
2023/01/05 13:47:42;;;;;;;10.17;2.90;;;10.80;1.00;;;;;;5036577;28;20500;-38
2023/01/05 13:50:36;;;;;;;9.93;2.90;;;10.70;1.00;;;;;;5035677;28;20480;-38